sensor_id;sensor_type;location;lat;lon;timestamp;P1;durP1;ratioP1;P2;durP2;ratioP2
56425;SDS011;42330;43.620;3.856;2022-10-18T00:00:59;11.98;;;3.90;;
56425;SDS011;42330;43.620;3.856;2022-10-18T00:03:25;11.85;;;3.35;;
56425;SDS011;42330;43.620;3.856;2022-10-18T00:05:51;13.43;;;3.55;;
56425;SDS011;42330;43.620;3.856;2022-10-18T00:08:17;9.57;;;3.30;;
56425;SDS011;42330;43.620;3.856;2022-10-18T00:10:43;11.95;;;3.35;;
56425;SDS011;42330;43.620;3.856;2022-10-18T00:13:09;12.38;;;3.05;;
56425;SDS011;42330;43.620;3.856;2022-10-18T00:15:35;14.70;;;3.30;;
56425;SDS011;42330;43.620;3.856;2022-10-18T00:18:00;9.07;;;3.38;;
56425;SDS011;42330;43.620;3.856;2022-10-18T00:20:26;13.40;;;3.25;;
56425;SDS011;42330;43.620;3.856;2022-10-18T00:22:52;12.18;;;3.20;;
56425;SDS011;42330;43.620;3.856;2022-10-18T00:25:18;9.57;;;3.00;;
56425;SDS011;42330;43.620;3.856;2022-10-18T00:27:44;10.65;;;3.30;;
56425;SDS011;42330;43.620;3.856;2022-10-18T00:30:09;12.77;;;3.72;;
56425;SDS011;42330;43.620;3.856;2022-10-18T00:32:39;16.48;;;3.95;;
56425;SDS011;42330;43.620;3.856;2022-10-18T00:35:06;16.27;;;4.15;;
56425;SDS011;42330;43.620;3.856;2022-10-18T00:37:33;13.30;;;4.18;;
56425;SDS011;42330;43.620;3.856;2022-10-18T00:39:59;12.07;;;4.13;;
56425;SDS011;42330;43.620;3.856;2022-10-18T00:42:27;15.75;;;4.63;;
56425;SDS011;42330;43.620;3.856;2022-10-18T00:44:59;18.95;;;4.40;;
56425;SDS011;42330;43.620;3.856;2022-10-18T00:47:44;13.43;;;4.25;;
56425;SDS011;42330;43.620;3.856;2022-10-18T00:50:14;14.55;;;4.50;;
56425;SDS011;42330;43.620;3.856;2022-10-18T00:52:41;14.40;;;4.72;;
56425;SDS011;42330;43.620;3.856;2022-10-18T00:55:10;16.65;;;4.70;;
56425;SDS011;42330;43.620;3.856;2022-10-18T00:57:37;15.93;;;4.70;;
56425;SDS011;42330;43.620;3.856;2022-10-18T01:00:06;16.48;;;5.00;;
56425;SDS011;42330;43.620;3.856;2022-10-18T01:02:34;17.42;;;5.15;;
56425;SDS011;42330;43.620;3.856;2022-10-18T01:05:02;17.15;;;4.90;;
56425;SDS011;42330;43.620;3.856;2022-10-18T01:21:21;14.52;;;5.10;;
56425;SDS011;42330;43.620;3.856;2022-10-18T01:23:56;13.45;;;4.72;;
56425;SDS011;42330;43.620;3.856;2022-10-18T01:32:49;14.45;;;4.70;;
56425;SDS011;42330;43.620;3.856;2022-10-18T01:35:21;14.10;;;4.95;;
56425;SDS011;42330;43.620;3.856;2022-10-18T01:37:53;15.15;;;5.18;;
56425;SDS011;42330;43.620;3.856;2022-10-18T01:40:23;15.23;;;5.10;;
56425;SDS011;42330;43.620;3.856;2022-10-18T01:42:49;17.25;;;5.32;;
56425;SDS011;42330;43.620;3.856;2022-10-18T01:45:15;15.90;;;5.65;;
56425;SDS011;42330;43.620;3.856;2022-10-18T01:47:43;16.38;;;5.60;;
56425;SDS011;42330;43.620;3.856;2022-10-18T01:50:10;15.63;;;5.35;;
56425;SDS011;42330;43.620;3.856;2022-10-18T01:52:46;18.17;;;5.97;;
56425;SDS011;42330;43.620;3.856;2022-10-18T01:55:13;17.20;;;5.70;;
56425;SDS011;42330;43.620;3.856;2022-10-18T01:57:40;14.75;;;5.55;;
56425;SDS011;42330;43.620;3.856;2022-10-18T02:00:22;18.42;;;5.85;;
56425;SDS011;42330;43.620;3.856;2022-10-18T02:03:13;14.80;;;5.38;;
56425;SDS011;42330;43.620;3.856;2022-10-18T02:05:48;15.27;;;5.78;;
56425;SDS011;42330;43.620;3.856;2022-10-18T02:08:24;15.27;;;5.70;;
56425;SDS011;42330;43.620;3.856;2022-10-18T02:11:06;18.45;;;5.30;;
56425;SDS011;42330;43.620;3.856;2022-10-18T02:16:09;21.40;;;5.53;;
56425;SDS011;42330;43.620;3.856;2022-10-18T02:18:48;17.33;;;5.65;;
56425;SDS011;42330;43.620;3.856;2022-10-18T02:21:18;16.52;;;5.70;;
56425;SDS011;42330;43.620;3.856;2022-10-18T02:23:45;17.92;;;5.30;;
56425;SDS011;42330;43.620;3.856;2022-10-18T02:26:15;17.60;;;5.40;;
56425;SDS011;42330;43.620;3.856;2022-10-18T02:28:41;16.13;;;5.35;;
56425;SDS011;42330;43.620;3.856;2022-10-18T02:33:42;17.00;;;5.35;;
56425;SDS011;42330;43.620;3.856;2022-10-18T02:36:27;17.60;;;5.55;;
56425;SDS011;42330;43.620;3.856;2022-10-18T02:39:11;18.38;;;4.78;;
56425;SDS011;42330;43.620;3.856;2022-10-18T02:41:42;11.50;;;5.30;;
56425;SDS011;42330;43.620;3.856;2022-10-18T02:44:09;17.08;;;5.40;;
56425;SDS011;42330;43.620;3.856;2022-10-18T02:46:35;17.40;;;5.63;;
56425;SDS011;42330;43.620;3.856;2022-10-18T02:49:01;19.58;;;5.60;;
56425;SDS011;42330;43.620;3.856;2022-10-18T02:51:26;14.70;;;5.13;;
56425;SDS011;42330;43.620;3.856;2022-10-18T02:53:52;19.85;;;5.30;;
56425;SDS011;42330;43.620;3.856;2022-10-18T02:56:18;16.55;;;5.03;;
56425;SDS011;42330;43.620;3.856;2022-10-18T02:58:43;17.02;;;5.30;;
56425;SDS011;42330;43.620;3.856;2022-10-18T03:01:09;17.77;;;5.72;;
56425;SDS011;42330;43.620;3.856;2022-10-18T03:03:34;14.18;;;4.80;;
56425;SDS011;42330;43.620;3.856;2022-10-18T03:06:00;13.85;;;4.88;;
56425;SDS011;42330;43.620;3.856;2022-10-18T03:08:26;15.18;;;5.22;;
56425;SDS011;42330;43.620;3.856;2022-10-18T03:10:51;16.17;;;5.22;;
56425;SDS011;42330;43.620;3.856;2022-10-18T03:13:17;12.40;;;5.45;;
56425;SDS011;42330;43.620;3.856;2022-10-18T03:15:43;12.77;;;4.80;;
56425;SDS011;42330;43.620;3.856;2022-10-18T03:18:08;15.77;;;4.80;;
56425;SDS011;42330;43.620;3.856;2022-10-18T03:20:34;12.38;;;4.60;;
56425;SDS011;42330;43.620;3.856;2022-10-18T03:22:59;15.52;;;4.85;;
56425;SDS011;42330;43.620;3.856;2022-10-18T03:25:25;15.00;;;4.80;;
56425;SDS011;42330;43.620;3.856;2022-10-18T03:27:51;15.85;;;4.85;;
56425;SDS011;42330;43.620;3.856;2022-10-18T03:30:16;12.70;;;4.82;;
56425;SDS011;42330;43.620;3.856;2022-10-18T03:32:42;14.10;;;4.90;;
56425;SDS011;42330;43.620;3.856;2022-10-18T03:35:08;15.32;;;5.25;;
56425;SDS011;42330;43.620;3.856;2022-10-18T03:37:34;13.57;;;4.95;;
56425;SDS011;42330;43.620;3.856;2022-10-18T03:40:00;13.50;;;5.13;;
56425;SDS011;42330;43.620;3.856;2022-10-18T03:42:26;14.77;;;4.72;;
56425;SDS011;42330;43.620;3.856;2022-10-18T03:44:52;14.90;;;5.38;;
56425;SDS011;42330;43.620;3.856;2022-10-18T03:47:18;11.85;;;5.10;;
56425;SDS011;42330;43.620;3.856;2022-10-18T03:49:43;11.70;;;5.03;;
56425;SDS011;42330;43.620;3.856;2022-10-18T03:52:09;18.05;;;4.95;;
56425;SDS011;42330;43.620;3.856;2022-10-18T03:54:35;15.15;;;5.40;;
56425;SDS011;42330;43.620;3.856;2022-10-18T03:57:00;16.13;;;5.70;;
56425;SDS011;42330;43.620;3.856;2022-10-18T03:59:26;17.13;;;5.65;;
56425;SDS011;42330;43.620;3.856;2022-10-18T04:01:51;13.02;;;5.32;;
56425;SDS011;42330;43.620;3.856;2022-10-18T04:04:17;17.85;;;6.25;;
56425;SDS011;42330;43.620;3.856;2022-10-18T04:06:43;16.83;;;5.70;;
56425;SDS011;42330;43.620;3.856;2022-10-18T04:09:08;15.57;;;6.15;;
56425;SDS011;42330;43.620;3.856;2022-10-18T04:11:34;14.75;;;6.10;;
56425;SDS011;42330;43.620;3.856;2022-10-18T04:14:00;16.05;;;6.55;;
56425;SDS011;42330;43.620;3.856;2022-10-18T04:16:26;15.63;;;6.57;;
56425;SDS011;42330;43.620;3.856;2022-10-18T04:18:51;17.20;;;6.50;;
56425;SDS011;42330;43.620;3.856;2022-10-18T04:21:17;15.10;;;6.85;;
56425;SDS011;42330;43.620;3.856;2022-10-18T04:23:43;19.38;;;7.35;;
56425;SDS011;42330;43.620;3.856;2022-10-18T04:26:10;15.38;;;7.15;;
56425;SDS011;42330;43.620;3.856;2022-10-18T04:28:36;14.90;;;7.00;;
56425;SDS011;42330;43.620;3.856;2022-10-18T04:31:04;17.75;;;7.32;;
56425;SDS011;42330;43.620;3.856;2022-10-18T04:33:30;20.23;;;7.22;;
56425;SDS011;42330;43.620;3.856;2022-10-18T04:35:56;20.17;;;6.95;;
56425;SDS011;42330;43.620;3.856;2022-10-18T04:38:21;17.88;;;7.00;;
56425;SDS011;42330;43.620;3.856;2022-10-18T04:40:47;17.65;;;6.60;;
56425;SDS011;42330;43.620;3.856;2022-10-18T04:43:13;14.77;;;6.65;;
56425;SDS011;42330;43.620;3.856;2022-10-18T04:45:39;16.75;;;6.82;;
56425;SDS011;42330;43.620;3.856;2022-10-18T04:48:05;17.98;;;7.20;;
56425;SDS011;42330;43.620;3.856;2022-10-18T04:50:30;17.15;;;7.32;;
56425;SDS011;42330;43.620;3.856;2022-10-18T04:52:56;18.05;;;7.68;;
56425;SDS011;42330;43.620;3.856;2022-10-18T04:55:22;17.60;;;7.88;;
56425;SDS011;42330;43.620;3.856;2022-10-18T04:57:47;20.13;;;8.27;;
56425;SDS011;42330;43.620;3.856;2022-10-18T05:00:13;17.20;;;7.20;;
56425;SDS011;42330;43.620;3.856;2022-10-18T05:02:39;17.90;;;8.43;;
56425;SDS011;42330;43.620;3.856;2022-10-18T05:05:05;13.90;;;7.25;;
56425;SDS011;42330;43.620;3.856;2022-10-18T05:07:30;15.45;;;7.38;;
56425;SDS011;42330;43.620;3.856;2022-10-18T05:09:56;17.48;;;7.35;;
56425;SDS011;42330;43.620;3.856;2022-10-18T05:12:22;18.55;;;7.60;;
56425;SDS011;42330;43.620;3.856;2022-10-18T05:14:48;20.17;;;8.23;;
56425;SDS011;42330;43.620;3.856;2022-10-18T05:17:13;20.25;;;8.20;;
56425;SDS011;42330;43.620;3.856;2022-10-18T05:19:40;15.15;;;7.60;;
56425;SDS011;42330;43.620;3.856;2022-10-18T05:22:06;14.85;;;6.82;;
56425;SDS011;42330;43.620;3.856;2022-10-18T05:24:32;17.55;;;7.30;;
56425;SDS011;42330;43.620;3.856;2022-10-18T05:26:58;18.20;;;7.13;;
56425;SDS011;42330;43.620;3.856;2022-10-18T05:29:23;19.80;;;7.72;;
56425;SDS011;42330;43.620;3.856;2022-10-18T05:31:49;16.33;;;7.25;;
56425;SDS011;42330;43.620;3.856;2022-10-18T05:34:15;21.02;;;7.68;;
56425;SDS011;42330;43.620;3.856;2022-10-18T05:36:41;15.05;;;7.75;;
56425;SDS011;42330;43.620;3.856;2022-10-18T05:39:07;16.75;;;7.95;;
56425;SDS011;42330;43.620;3.856;2022-10-18T05:41:32;16.08;;;7.93;;
56425;SDS011;42330;43.620;3.856;2022-10-18T05:44:01;15.20;;;7.57;;
56425;SDS011;42330;43.620;3.856;2022-10-18T05:46:28;23.85;;;7.90;;
56425;SDS011;42330;43.620;3.856;2022-10-18T05:48:54;18.10;;;8.07;;
56425;SDS011;42330;43.620;3.856;2022-10-18T05:51:20;17.15;;;8.13;;
56425;SDS011;42330;43.620;3.856;2022-10-18T05:53:45;14.70;;;8.20;;
56425;SDS011;42330;43.620;3.856;2022-10-18T05:56:11;16.05;;;8.45;;
56425;SDS011;42330;43.620;3.856;2022-10-18T05:58:38;17.23;;;8.10;;
56425;SDS011;42330;43.620;3.856;2022-10-18T06:01:05;16.23;;;8.32;;
56425;SDS011;42330;43.620;3.856;2022-10-18T06:03:31;22.30;;;8.52;;
56425;SDS011;42330;43.620;3.856;2022-10-18T06:06:02;14.30;;;8.38;;
56425;SDS011;42330;43.620;3.856;2022-10-18T06:08:29;16.08;;;8.75;;
56425;SDS011;42330;43.620;3.856;2022-10-18T06:10:55;17.98;;;9.18;;
56425;SDS011;42330;43.620;3.856;2022-10-18T06:13:21;16.48;;;9.50;;
56425;SDS011;42330;43.620;3.856;2022-10-18T06:15:47;16.42;;;8.75;;
56425;SDS011;42330;43.620;3.856;2022-10-18T06:18:12;18.38;;;9.13;;
56425;SDS011;42330;43.620;3.856;2022-10-18T06:20:38;17.88;;;8.15;;
56425;SDS011;42330;43.620;3.856;2022-10-18T06:23:04;17.95;;;8.32;;
56425;SDS011;42330;43.620;3.856;2022-10-18T06:25:29;17.95;;;8.65;;
56425;SDS011;42330;43.620;3.856;2022-10-18T06:27:55;14.07;;;8.80;;
56425;SDS011;42330;43.620;3.856;2022-10-18T06:30:21;16.45;;;9.82;;
56425;SDS011;42330;43.620;3.856;2022-10-18T06:32:46;17.27;;;9.45;;
56425;SDS011;42330;43.620;3.856;2022-10-18T06:35:12;18.40;;;9.25;;
56425;SDS011;42330;43.620;3.856;2022-10-18T06:37:37;17.25;;;8.65;;
56425;SDS011;42330;43.620;3.856;2022-10-18T06:40:04;17.88;;;9.45;;
56425;SDS011;42330;43.620;3.856;2022-10-18T06:42:30;13.98;;;8.40;;
56425;SDS011;42330;43.620;3.856;2022-10-18T06:44:56;17.17;;;9.38;;
56425;SDS011;42330;43.620;3.856;2022-10-18T06:47:22;15.98;;;9.13;;
56425;SDS011;42330;43.620;3.856;2022-10-18T06:49:48;16.13;;;8.82;;
56425;SDS011;42330;43.620;3.856;2022-10-18T06:52:16;15.85;;;8.65;;
56425;SDS011;42330;43.620;3.856;2022-10-18T06:54:42;19.67;;;9.50;;
56425;SDS011;42330;43.620;3.856;2022-10-18T06:57:07;12.88;;;8.30;;
56425;SDS011;42330;43.620;3.856;2022-10-18T06:59:33;17.27;;;9.27;;
56425;SDS011;42330;43.620;3.856;2022-10-18T07:01:59;15.50;;;8.73;;
56425;SDS011;42330;43.620;3.856;2022-10-18T07:04:28;13.57;;;8.57;;
56425;SDS011;42330;43.620;3.856;2022-10-18T07:06:56;18.55;;;9.40;;
56425;SDS011;42330;43.620;3.856;2022-10-18T07:09:22;15.93;;;9.30;;
56425;SDS011;42330;43.620;3.856;2022-10-18T07:11:48;19.05;;;9.13;;
56425;SDS011;42330;43.620;3.856;2022-10-18T07:14:13;16.67;;;8.30;;
56425;SDS011;42330;43.620;3.856;2022-10-18T07:16:39;17.67;;;9.30;;
56425;SDS011;42330;43.620;3.856;2022-10-18T07:19:04;14.60;;;8.55;;
56425;SDS011;42330;43.620;3.856;2022-10-18T07:21:30;13.95;;;8.75;;
56425;SDS011;42330;43.620;3.856;2022-10-18T07:23:56;16.05;;;8.38;;
56425;SDS011;42330;43.620;3.856;2022-10-18T07:28:54;18.20;;;9.25;;
56425;SDS011;42330;43.620;3.856;2022-10-18T07:31:22;14.48;;;8.70;;
56425;SDS011;42330;43.620;3.856;2022-10-18T07:33:48;18.13;;;9.18;;
56425;SDS011;42330;43.620;3.856;2022-10-18T07:36:13;17.45;;;9.35;;
56425;SDS011;42330;43.620;3.856;2022-10-18T07:38:39;14.95;;;9.02;;
56425;SDS011;42330;43.620;3.856;2022-10-18T07:41:05;17.27;;;8.43;;
56425;SDS011;42330;43.620;3.856;2022-10-18T07:43:32;17.90;;;8.65;;
56425;SDS011;42330;43.620;3.856;2022-10-18T07:45:59;17.50;;;9.23;;
56425;SDS011;42330;43.620;3.856;2022-10-18T07:48:27;15.45;;;9.10;;
56425;SDS011;42330;43.620;3.856;2022-10-18T07:50:53;16.13;;;9.80;;
56425;SDS011;42330;43.620;3.856;2022-10-18T07:53:18;17.65;;;10.13;;
56425;SDS011;42330;43.620;3.856;2022-10-18T07:55:44;15.20;;;9.68;;
56425;SDS011;42330;43.620;3.856;2022-10-18T07:58:10;15.45;;;10.10;;
56425;SDS011;42330;43.620;3.856;2022-10-18T08:00:36;16.83;;;10.60;;
56425;SDS011;42330;43.620;3.856;2022-10-18T08:03:02;19.70;;;10.20;;
56425;SDS011;42330;43.620;3.856;2022-10-18T08:05:27;16.17;;;9.68;;
56425;SDS011;42330;43.620;3.856;2022-10-18T08:07:53;19.75;;;10.32;;
56425;SDS011;42330;43.620;3.856;2022-10-18T08:10:19;17.73;;;10.27;;
56425;SDS011;42330;43.620;3.856;2022-10-18T08:12:46;19.60;;;10.70;;
56425;SDS011;42330;43.620;3.856;2022-10-18T08:15:11;16.73;;;10.32;;
56425;SDS011;42330;43.620;3.856;2022-10-18T08:17:37;15.77;;;10.02;;
56425;SDS011;42330;43.620;3.856;2022-10-18T08:20:03;16.75;;;10.52;;
56425;SDS011;42330;43.620;3.856;2022-10-18T08:22:29;15.45;;;9.93;;
56425;SDS011;42330;43.620;3.856;2022-10-18T08:24:55;16.73;;;10.27;;
56425;SDS011;42330;43.620;3.856;2022-10-18T08:27:21;15.23;;;10.10;;
56425;SDS011;42330;43.620;3.856;2022-10-18T08:29:49;17.23;;;10.27;;
56425;SDS011;42330;43.620;3.856;2022-10-18T08:32:15;19.90;;;10.13;;
56425;SDS011;42330;43.620;3.856;2022-10-18T08:34:40;17.08;;;9.82;;
56425;SDS011;42330;43.620;3.856;2022-10-18T08:37:06;13.90;;;10.07;;
56425;SDS011;42330;43.620;3.856;2022-10-18T08:39:31;17.35;;;10.23;;
56425;SDS011;42330;43.620;3.856;2022-10-18T08:44:41;12.82;;;9.45;;
56425;SDS011;42330;43.620;3.856;2022-10-18T08:47:11;19.70;;;9.60;;
56425;SDS011;42330;43.620;3.856;2022-10-18T08:49:55;15.65;;;9.13;;
56425;SDS011;42330;43.620;3.856;2022-10-18T08:55:25;13.23;;;8.73;;
56425;SDS011;42330;43.620;3.856;2022-10-18T08:58:03;14.00;;;9.02;;
56425;SDS011;42330;43.620;3.856;2022-10-18T09:00:39;15.57;;;8.77;;
56425;SDS011;42330;43.620;3.856;2022-10-18T09:05:51;12.38;;;7.85;;
56425;SDS011;42330;43.620;3.856;2022-10-18T09:13:52;13.02;;;7.60;;
56425;SDS011;42330;43.620;3.856;2022-10-18T09:16:33;12.00;;;6.88;;
56425;SDS011;42330;43.620;3.856;2022-10-18T09:22:12;12.48;;;5.95;;
56425;SDS011;42330;43.620;3.856;2022-10-18T09:27:34;12.25;;;6.80;;
56425;SDS011;42330;43.620;3.856;2022-10-18T09:30:31;11.63;;;6.65;;
56425;SDS011;42330;43.620;3.856;2022-10-18T09:36:04;11.15;;;6.13;;
56425;SDS011;42330;43.620;3.856;2022-10-18T09:38:33;10.43;;;6.97;;
56425;SDS011;42330;43.620;3.856;2022-10-18T09:41:22;11.88;;;6.40;;
56425;SDS011;42330;43.620;3.856;2022-10-18T09:43:53;11.43;;;6.60;;
56425;SDS011;42330;43.620;3.856;2022-10-18T09:46:24;14.63;;;6.85;;
56425;SDS011;42330;43.620;3.856;2022-10-18T09:49:02;32.45;;;7.35;;
56425;SDS011;42330;43.620;3.856;2022-10-18T09:51:35;16.17;;;7.28;;
56425;SDS011;42330;43.620;3.856;2022-10-18T09:56:56;12.77;;;7.00;;
56425;SDS011;42330;43.620;3.856;2022-10-18T09:59:36;12.32;;;7.03;;
56425;SDS011;42330;43.620;3.856;2022-10-18T10:02:17;15.55;;;7.00;;
56425;SDS011;42330;43.620;3.856;2022-10-18T10:04:46;12.75;;;6.82;;
56425;SDS011;42330;43.620;3.856;2022-10-18T10:07:13;13.40;;;7.00;;
56425;SDS011;42330;43.620;3.856;2022-10-18T10:12:36;13.63;;;6.40;;
56425;SDS011;42330;43.620;3.856;2022-10-18T10:15:16;12.23;;;6.30;;
56425;SDS011;42330;43.620;3.856;2022-10-18T10:17:44;12.10;;;5.88;;
56425;SDS011;42330;43.620;3.856;2022-10-18T10:20:41;12.40;;;6.03;;
56425;SDS011;42330;43.620;3.856;2022-10-18T10:23:19;10.77;;;5.60;;
56425;SDS011;42330;43.620;3.856;2022-10-18T10:25:51;13.45;;;5.10;;
56425;SDS011;42330;43.620;3.856;2022-10-18T10:28:35;12.85;;;5.90;;
56425;SDS011;42330;43.620;3.856;2022-10-18T10:33:57;14.68;;;5.80;;
56425;SDS011;42330;43.620;3.856;2022-10-18T10:36:35;15.27;;;5.85;;
56425;SDS011;42330;43.620;3.856;2022-10-18T10:39:12;12.75;;;5.90;;
56425;SDS011;42330;43.620;3.856;2022-10-18T10:41:50;12.02;;;6.05;;
56425;SDS011;42330;43.620;3.856;2022-10-18T10:44:24;10.65;;;5.28;;
56425;SDS011;42330;43.620;3.856;2022-10-18T10:46:53;11.35;;;5.38;;
56425;SDS011;42330;43.620;3.856;2022-10-18T10:49:20;10.32;;;5.70;;
56425;SDS011;42330;43.620;3.856;2022-10-18T10:52:00;12.15;;;6.40;;
56425;SDS011;42330;43.620;3.856;2022-10-18T10:54:28;10.07;;;5.57;;
56425;SDS011;42330;43.620;3.856;2022-10-18T11:02:21;10.30;;;6.32;;
56425;SDS011;42330;43.620;3.856;2022-10-18T11:04:51;12.82;;;6.28;;
56425;SDS011;42330;43.620;3.856;2022-10-18T11:10:08;12.05;;;6.28;;
56425;SDS011;42330;43.620;3.856;2022-10-18T11:12:44;10.88;;;6.32;;
56425;SDS011;42330;43.620;3.856;2022-10-18T11:15:37;10.32;;;5.90;;
56425;SDS011;42330;43.620;3.856;2022-10-18T11:20:52;11.27;;;6.38;;
56425;SDS011;42330;43.620;3.856;2022-10-18T11:23:20;12.25;;;6.35;;
56425;SDS011;42330;43.620;3.856;2022-10-18T11:47:53;8.43;;;4.70;;
56425;SDS011;42330;43.620;3.856;2022-10-18T11:50:24;11.10;;;5.03;;
56425;SDS011;42330;43.620;3.856;2022-10-18T11:55:54;8.70;;;4.18;;
56425;SDS011;42330;43.620;3.856;2022-10-18T11:58:28;7.90;;;4.15;;
56425;SDS011;42330;43.620;3.856;2022-10-18T12:01:18;6.72;;;3.92;;
56425;SDS011;42330;43.620;3.856;2022-10-18T12:04:11;10.52;;;4.72;;
56425;SDS011;42330;43.620;3.856;2022-10-18T12:06:45;12.88;;;4.85;;
56425;SDS011;42330;43.620;3.856;2022-10-18T12:09:24;11.85;;;4.38;;
56425;SDS011;42330;43.620;3.856;2022-10-18T12:12:13;8.13;;;4.00;;
56425;SDS011;42330;43.620;3.856;2022-10-18T12:14:48;11.07;;;3.88;;
56425;SDS011;42330;43.620;3.856;2022-10-18T12:19:54;9.77;;;3.13;;
56425;SDS011;42330;43.620;3.856;2022-10-18T12:22:41;10.30;;;2.67;;
56425;SDS011;42330;43.620;3.856;2022-10-18T12:25:24;10.27;;;2.67;;
56425;SDS011;42330;43.620;3.856;2022-10-18T12:27:53;11.60;;;3.00;;
56425;SDS011;42330;43.620;3.856;2022-10-18T12:31:04;11.02;;;3.08;;
56425;SDS011;42330;43.620;3.856;2022-10-18T12:33:25;6.97;;;3.22;;
56425;SDS011;42330;43.620;3.856;2022-10-18T12:38:30;11.50;;;3.35;;
56425;SDS011;42330;43.620;3.856;2022-10-18T12:40:59;13.88;;;3.17;;
56425;SDS011;42330;43.620;3.856;2022-10-18T12:43:26;9.25;;;3.47;;
56425;SDS011;42330;43.620;3.856;2022-10-18T12:46:01;10.00;;;3.60;;
56425;SDS011;42330;43.620;3.856;2022-10-18T12:51:16;13.25;;;3.15;;
56425;SDS011;42330;43.620;3.856;2022-10-18T13:09:37;14.32;;;4.93;;
56425;SDS011;42330;43.620;3.856;2022-10-18T13:17:19;11.27;;;4.15;;
56425;SDS011;42330;43.620;3.856;2022-10-18T13:22:51;12.10;;;4.88;;
56425;SDS011;42330;43.620;3.856;2022-10-18T13:27:46;12.65;;;5.18;;
56425;SDS011;42330;43.620;3.856;2022-10-18T13:35:56;11.48;;;4.78;;
56425;SDS011;42330;43.620;3.856;2022-10-18T13:41:08;12.07;;;4.13;;
56425;SDS011;42330;43.620;3.856;2022-10-18T13:46:21;11.23;;;4.05;;
56425;SDS011;42330;43.620;3.856;2022-10-18T13:48:49;16.58;;;4.60;;
56425;SDS011;42330;43.620;3.856;2022-10-18T13:59:42;10.07;;;3.60;;
56425;SDS011;42330;43.620;3.856;2022-10-18T14:02:39;14.90;;;3.40;;
56425;SDS011;42330;43.620;3.856;2022-10-18T14:08:17;6.78;;;2.97;;
56425;SDS011;42330;43.620;3.856;2022-10-18T14:13:46;11.60;;;3.30;;
56425;SDS011;42330;43.620;3.856;2022-10-18T14:16:37;9.15;;;3.03;;
56425;SDS011;42330;43.620;3.856;2022-10-18T14:21:53;11.70;;;3.08;;
56425;SDS011;42330;43.620;3.856;2022-10-18T14:24:27;9.68;;;3.13;;
56425;SDS011;42330;43.620;3.856;2022-10-18T14:27:10;13.90;;;3.15;;
56425;SDS011;42330;43.620;3.856;2022-10-18T14:29:44;8.20;;;3.15;;
56425;SDS011;42330;43.620;3.856;2022-10-18T14:32:17;8.57;;;3.33;;
56425;SDS011;42330;43.620;3.856;2022-10-18T14:34:53;10.85;;;3.35;;
56425;SDS011;42330;43.620;3.856;2022-10-18T14:37:31;11.77;;;3.10;;
56425;SDS011;42330;43.620;3.856;2022-10-18T14:39:58;8.15;;;3.10;;
56425;SDS011;42330;43.620;3.856;2022-10-18T14:42:25;9.38;;;3.20;;
56425;SDS011;42330;43.620;3.856;2022-10-18T14:44:52;11.70;;;3.28;;
56425;SDS011;42330;43.620;3.856;2022-10-18T14:47:20;11.45;;;3.05;;
56425;SDS011;42330;43.620;3.856;2022-10-18T14:49:47;9.38;;;3.05;;
56425;SDS011;42330;43.620;3.856;2022-10-18T14:52:14;6.88;;;2.97;;
56425;SDS011;42330;43.620;3.856;2022-10-18T14:54:43;11.23;;;2.85;;
56425;SDS011;42330;43.620;3.856;2022-10-18T14:57:17;11.80;;;3.25;;
56425;SDS011;42330;43.620;3.856;2022-10-18T14:59:47;13.63;;;3.15;;
56425;SDS011;42330;43.620;3.856;2022-10-18T15:02:20;9.38;;;3.05;;
56425;SDS011;42330;43.620;3.856;2022-10-18T15:04:58;9.48;;;3.13;;
56425;SDS011;42330;43.620;3.856;2022-10-18T15:07:45;7.15;;;2.78;;
56425;SDS011;42330;43.620;3.856;2022-10-18T15:10:16;6.72;;;2.50;;
56425;SDS011;42330;43.620;3.856;2022-10-18T15:12:44;6.20;;;2.53;;
56425;SDS011;42330;43.620;3.856;2022-10-18T15:15:18;11.73;;;2.70;;
56425;SDS011;42330;43.620;3.856;2022-10-18T15:17:46;8.13;;;2.45;;
56425;SDS011;42330;43.620;3.856;2022-10-18T15:20:34;9.02;;;2.38;;
56425;SDS011;42330;43.620;3.856;2022-10-18T15:25:52;11.63;;;2.90;;
56425;SDS011;42330;43.620;3.856;2022-10-18T15:28:27;10.85;;;2.60;;
56425;SDS011;42330;43.620;3.856;2022-10-18T15:30:55;7.80;;;2.30;;
56425;SDS011;42330;43.620;3.856;2022-10-18T15:33:22;8.35;;;2.30;;
56425;SDS011;42330;43.620;3.856;2022-10-18T15:35:51;7.60;;;2.78;;
56425;SDS011;42330;43.620;3.856;2022-10-18T15:40:51;8.30;;;2.47;;
56425;SDS011;42330;43.620;3.856;2022-10-18T15:46:00;8.63;;;2.58;;
56425;SDS011;42330;43.620;3.856;2022-10-18T15:48:34;17.77;;;2.80;;
56425;SDS011;42330;43.620;3.856;2022-10-18T15:51:02;7.38;;;2.45;;
56425;SDS011;42330;43.620;3.856;2022-10-18T15:53:31;9.43;;;2.53;;
56425;SDS011;42330;43.620;3.856;2022-10-18T15:56:06;10.82;;;2.33;;
56425;SDS011;42330;43.620;3.856;2022-10-18T15:58:53;10.25;;;2.50;;
56425;SDS011;42330;43.620;3.856;2022-10-18T16:01:44;10.45;;;2.53;;
56425;SDS011;42330;43.620;3.856;2022-10-18T16:04:25;8.10;;;2.25;;
56425;SDS011;42330;43.620;3.856;2022-10-18T16:06:51;8.10;;;2.83;;
56425;SDS011;42330;43.620;3.856;2022-10-18T16:09:20;6.85;;;2.40;;
56425;SDS011;42330;43.620;3.856;2022-10-18T16:11:46;9.18;;;2.38;;
56425;SDS011;42330;43.620;3.856;2022-10-18T16:14:15;8.13;;;2.40;;
56425;SDS011;42330;43.620;3.856;2022-10-18T16:16:41;5.60;;;2.08;;
56425;SDS011;42330;43.620;3.856;2022-10-18T16:19:08;8.63;;;2.40;;
56425;SDS011;42330;43.620;3.856;2022-10-18T16:21:37;7.20;;;2.33;;
56425;SDS011;42330;43.620;3.856;2022-10-18T16:24:03;7.78;;;2.50;;
56425;SDS011;42330;43.620;3.856;2022-10-18T16:26:29;7.28;;;2.30;;
56425;SDS011;42330;43.620;3.856;2022-10-18T16:28:55;9.57;;;3.70;;
56425;SDS011;42330;43.620;3.856;2022-10-18T16:31:23;12.43;;;2.72;;
56425;SDS011;42330;43.620;3.856;2022-10-18T16:33:52;10.00;;;2.47;;
56425;SDS011;42330;43.620;3.856;2022-10-18T16:36:20;8.75;;;2.65;;
56425;SDS011;42330;43.620;3.856;2022-10-18T16:38:49;12.52;;;2.83;;
56425;SDS011;42330;43.620;3.856;2022-10-18T16:41:15;10.40;;;2.65;;
56425;SDS011;42330;43.620;3.856;2022-10-18T16:43:41;10.45;;;2.30;;
56425;SDS011;42330;43.620;3.856;2022-10-18T16:46:09;11.95;;;2.55;;
56425;SDS011;42330;43.620;3.856;2022-10-18T16:48:39;9.90;;;2.60;;
56425;SDS011;42330;43.620;3.856;2022-10-18T16:51:05;9.98;;;2.42;;
56425;SDS011;42330;43.620;3.856;2022-10-18T16:53:31;7.85;;;2.60;;
56425;SDS011;42330;43.620;3.856;2022-10-18T16:55:57;8.00;;;2.50;;
56425;SDS011;42330;43.620;3.856;2022-10-18T16:58:25;13.80;;;4.30;;
56425;SDS011;42330;43.620;3.856;2022-10-18T17:00:52;11.30;;;2.63;;
56425;SDS011;42330;43.620;3.856;2022-10-18T17:03:18;10.45;;;3.10;;
56425;SDS011;42330;43.620;3.856;2022-10-18T17:05:43;8.43;;;2.42;;
56425;SDS011;42330;43.620;3.856;2022-10-18T17:08:17;9.70;;;2.95;;
56425;SDS011;42330;43.620;3.856;2022-10-18T17:10:45;8.60;;;2.45;;
56425;SDS011;42330;43.620;3.856;2022-10-18T17:13:12;12.13;;;2.53;;
56425;SDS011;42330;43.620;3.856;2022-10-18T17:15:38;8.20;;;2.38;;
56425;SDS011;42330;43.620;3.856;2022-10-18T17:18:08;11.35;;;2.90;;
56425;SDS011;42330;43.620;3.856;2022-10-18T17:20:38;10.27;;;2.63;;
56425;SDS011;42330;43.620;3.856;2022-10-18T17:23:05;9.70;;;2.65;;
56425;SDS011;42330;43.620;3.856;2022-10-18T17:25:33;10.35;;;2.75;;
56425;SDS011;42330;43.620;3.856;2022-10-18T17:28:02;12.80;;;2.90;;
56425;SDS011;42330;43.620;3.856;2022-10-18T17:30:29;12.18;;;2.90;;
56425;SDS011;42330;43.620;3.856;2022-10-18T17:32:55;12.15;;;2.90;;
56425;SDS011;42330;43.620;3.856;2022-10-18T17:35:21;7.95;;;3.03;;